sensor_id;sensor_type;location;lat;lon;timestamp;pressure;altitude;pressure_sealevel;temperature;humidity
74218;BME280;62579;47.288;18.646;2023-11-21T00:02:10;99437.63;;;6.22;100.00
74218;BME280;62579;47.288;18.646;2023-11-21T00:04:35;99440.38;;;6.27;100.00
74218;BME280;62579;47.288;18.646;2023-11-21T00:07:01;99447.72;;;6.27;100.00
74218;BME280;62579;47.288;18.646;2023-11-21T00:09:26;99449.72;;;6.26;100.00
74218;BME280;62579;47.288;18.646;2023-11-21T00:11:51;99447.22;;;6.23;100.00
74218;BME280;62579;47.288;18.646;2023-11-21T00:14:16;99456.81;;;6.24;100.00
74218;BME280;62579;47.288;18.646;2023-11-21T00:16:41;99452.87;;;6.25;100.00
74218;BME280;62579;47.288;18.646;2023-11-21T00:19:07;99457.28;;;6.22;100.00
74218;BME280;62579;47.288;18.646;2023-11-21T00:21:32;99457.53;;;6.24;100.00
74218;BME280;62579;47.288;18.646;2023-11-21T00:23:57;99460.66;;;6.17;100.00
74218;BME280;62579;47.288;18.646;2023-11-21T00:26:22;99461.47;;;6.23;100.00
74218;BME280;62579;47.288;18.646;2023-11-21T00:28:49;99461.47;;;6.23;100.00
74218;BME280;62579;47.288;18.646;2023-11-21T00:31:15;99461.25;;;6.27;100.00
74218;BME280;62579;47.288;18.646;2023-11-21T00:33:40;99462.47;;;6.26;100.00
74218;BME280;62579;47.288;18.646;2023-11-21T00:36:05;99458.84;;;6.29;100.00
74218;BME280;62579;47.288;18.646;2023-11-21T00:38:37;99455.19;;;6.32;100.00
74218;BME280;62579;47.288;18.646;2023-11-21T00:41:05;99463.00;;;6.30;100.00
74218;BME280;62579;47.288;18.646;2023-11-21T00:43:30;99450.44;;;6.27;100.00
74218;BME280;62579;47.288;18.646;2023-11-21T00:45:55;99454.19;;;6.29;100.00
74218;BME280;62579;47.288;18.646;2023-11-21T00:48:21;99452.87;;;6.25;100.00
74218;BME280;62579;47.288;18.646;2023-11-21T00:50:46;99451.87;;;6.22;100.00
74218;BME280;62579;47.288;18.646;2023-11-21T00:53:11;99450.81;;;6.14;100.00
74218;BME280;62579;47.288;18.646;2023-11-21T00:55:36;99450.66;;;6.23;100.00
74218;BME280;62579;47.288;18.646;2023-11-21T00:58:04;99448.72;;;6.24;100.00
74218;BME280;62579;47.288;18.646;2023-11-21T01:00:30;99446.22;;;6.20;100.00
74218;BME280;62579;47.288;18.646;2023-11-21T01:02:55;99442.75;;;6.20;100.00
74218;BME280;62579;47.288;18.646;2023-11-21T01:05:21;99450.34;;;6.16;100.00
74218;BME280;62579;47.288;18.646;2023-11-21T01:07:46;99443.25;;;6.18;100.00
74218;BME280;62579;47.288;18.646;2023-11-21T01:10:11;99448.41;;;6.22;100.00
74218;BME280;62579;47.288;18.646;2023-11-21T01:12:37;99438.84;;;6.21;100.00
74218;BME280;62579;47.288;18.646;2023-11-21T01:15:03;99434.91;;;6.22;100.00
74218;BME280;62579;47.288;18.646;2023-11-21T01:17:29;99425.84;;;6.25;100.00
74218;BME280;62579;47.288;18.646;2023-11-21T01:19:54;99426.12;;;6.27;100.00
74218;BME280;62579;47.288;18.646;2023-11-21T01:22:21;99423.66;;;6.23;100.00
74218;BME280;62579;47.288;18.646;2023-11-21T01:24:51;99428.41;;;6.34;100.00
74218;BME280;62579;47.288;18.646;2023-11-21T01:27:17;99422.53;;;6.35;100.00
74218;BME280;62579;47.288;18.646;2023-11-21T01:29:42;99418.34;;;6.34;100.00
74218;BME280;62579;47.288;18.646;2023-11-21T01:32:07;99422.53;;;6.35;100.00
74218;BME280;62579;47.288;18.646;2023-11-21T01:34:33;99422.75;;;6.32;100.00
74218;BME280;62579;47.288;18.646;2023-11-21T01:36:58;99422.25;;;6.33;100.00
74218;BME280;62579;47.288;18.646;2023-11-21T01:39:23;99420.72;;;6.27;100.00
74218;BME280;62579;47.288;18.646;2023-11-21T01:41:49;99412.19;;;6.34;100.00
74218;BME280;62579;47.288;18.646;2023-11-21T01:44:14;99409.91;;;6.27;100.00
74218;BME280;62579;47.288;18.646;2023-11-21T01:46:40;99411.12;;;6.26;100.00
74218;BME280;62579;47.288;18.646;2023-11-21T01:49:06;99408.53;;;6.11;100.00
74218;BME280;62579;47.288;18.646;2023-11-21T01:51:32;99414.53;;;6.21;100.00
74218;BME280;62579;47.288;18.646;2023-11-21T01:53:58;99404.25;;;6.25;100.00
74218;BME280;62579;47.288;18.646;2023-11-21T01:56:24;99398.37;;;6.26;100.00
74218;BME280;62579;47.288;18.646;2023-11-21T01:58:49;99396.88;;;6.25;100.00
74218;BME280;62579;47.288;18.646;2023-11-21T02:01:14;99393.19;;;6.23;100.00
74218;BME280;62579;47.288;18.646;2023-11-21T02:03:40;99383.37;;;6.25;100.00
74218;BME280;62579;47.288;18.646;2023-11-21T02:06:05;99377.47;;;6.27;100.00
74218;BME280;62579;47.288;18.646;2023-11-21T02:08:30;99378.78;;;6.31;100.00
74218;BME280;62579;47.288;18.646;2023-11-21T02:10:56;99374.13;;;6.32;100.00
74218;BME280;62579;47.288;18.646;2023-11-21T02:13:22;99374.63;;;6.36;100.00
74218;BME280;62579;47.288;18.646;2023-11-21T02:15:47;99367.47;;;6.33;100.00
74218;BME280;62579;47.288;18.646;2023-11-21T02:18:14;99373.63;;;6.33;100.00
74218;BME280;62579;47.288;18.646;2023-11-21T02:20:40;99371.16;;;6.35;100.00
74218;BME280;62579;47.288;18.646;2023-11-21T02:23:07;99367.22;;;6.31;100.00
74218;BME280;62579;47.288;18.646;2023-11-21T02:25:33;99374.81;;;6.32;100.00
74218;BME280;62579;47.288;18.646;2023-11-21T02:28:02;99369.41;;;6.32;100.00
74218;BME280;62579;47.288;18.646;2023-11-21T02:30:28;99366.06;;;6.37;100.00
74218;BME280;62579;47.288;18.646;2023-11-21T02:32:53;99358.16;;;6.34;100.00
74218;BME280;62579;47.288;18.646;2023-11-21T02:35:19;99360.84;;;6.34;100.00
74218;BME280;62579;47.288;18.646;2023-11-21T02:37:47;99357.41;;;6.33;100.00
74218;BME280;62579;47.288;18.646;2023-11-21T02:40:13;99359.16;;;6.36;100.00
74218;BME280;62579;47.288;18.646;2023-11-21T02:42:42;99351.34;;;6.44;100.00
74218;BME280;62579;47.288;18.646;2023-11-21T02:45:07;99353.87;;;6.53;100.00
74218;BME280;62579;47.288;18.646;2023-11-21T02:47:33;99354.88;;;6.55;100.00
74218;BME280;62579;47.288;18.646;2023-11-21T02:49:58;99348.56;;;6.64;100.00
74218;BME280;62579;47.288;18.646;2023-11-21T02:52:24;99342.91;;;6.68;100.00
74218;BME280;62579;47.288;18.646;2023-11-21T02:54:50;99340.53;;;6.81;100.00
74218;BME280;62579;47.288;18.646;2023-11-21T02:57:15;99342.19;;;6.67;100.00
74218;BME280;62579;47.288;18.646;2023-11-21T02:59:40;99335.78;;;6.64;100.00
74218;BME280;62579;47.288;18.646;2023-11-21T03:02:05;99344.34;;;6.57;100.00
74218;BME280;62579;47.288;18.646;2023-11-21T03:04:33;99328.16;;;6.63;100.00
74218;BME280;62579;47.288;18.646;2023-11-21T03:07:00;99321.50;;;6.58;100.00
74218;BME280;62579;47.288;18.646;2023-11-21T03:09:25;99319.50;;;6.53;100.00
74218;BME280;62579;47.288;18.646;2023-11-21T03:11:51;99311.16;;;6.57;100.00
74218;BME280;62579;47.288;18.646;2023-11-21T03:14:17;99308.81;;;6.39;100.00
74218;BME280;62579;47.288;18.646;2023-11-21T03:16:42;99299.91;;;6.33;100.00
74218;BME280;62579;47.288;18.646;2023-11-21T03:19:10;99300.16;;;6.29;100.00
74218;BME280;62579;47.288;18.646;2023-11-21T03:21:35;99299.41;;;6.29;100.00
74218;BME280;62579;47.288;18.646;2023-11-21T03:24:00;99290.59;;;6.34;100.00
74218;BME280;62579;47.288;18.646;2023-11-21T03:26:26;99300.34;;;6.26;100.00
74218;BME280;62579;47.288;18.646;2023-11-21T03:28:51;99305.31;;;6.33;100.00
74218;BME280;62579;47.288;18.646;2023-11-21T03:31:18;99308.28;;;6.35;100.00
74218;BME280;62579;47.288;18.646;2023-11-21T03:33:44;99314.72;;;6.37;100.00
74218;BME280;62579;47.288;18.646;2023-11-21T03:36:10;99316.72;;;6.42;100.00
74218;BME280;62579;47.288;18.646;2023-11-21T03:38:36;99318.66;;;6.42;100.00
74218;BME280;62579;47.288;18.646;2023-11-21T03:41:01;99325.72;;;6.34;100.00
74218;BME280;62579;47.288;18.646;2023-11-21T03:43:26;99317.72;;;6.19;100.00
74218;BME280;62579;47.288;18.646;2023-11-21T03:45:52;99319.78;;;6.30;100.00
74218;BME280;62579;47.288;18.646;2023-11-21T03:48:17;99321.47;;;6.27;100.00
74218;BME280;62579;47.288;18.646;2023-11-21T03:50:42;99316.81;;;6.28;100.00
74218;BME280;62579;47.288;18.646;2023-11-21T03:53:07;99323.44;;;6.27;100.00
74218;BME280;62579;47.288;18.646;2023-11-21T03:55:33;99323.94;;;6.25;100.00
74218;BME280;62579;47.288;18.646;2023-11-21T03:57:58;99328.38;;;6.28;100.00
74218;BME280;62579;47.288;18.646;2023-11-21T04:00:24;99333.56;;;6.32;100.00
74218;BME280;62579;47.288;18.646;2023-11-21T04:02:49;99337.22;;;6.29;100.00
74218;BME280;62579;47.288;18.646;2023-11-21T04:05:16;99331.59;;;6.32;100.00
74218;BME280;62579;47.288;18.646;2023-11-21T04:07:42;99330.59;;;6.30;100.00
74218;BME280;62579;47.288;18.646;2023-11-21T04:10:07;99335.28;;;6.35;100.00
74218;BME280;62579;47.288;18.646;2023-11-21T04:12:34;99333.62;;;6.37;100.00
74218;BME280;62579;47.288;18.646;2023-11-21T04:14:59;99336.38;;;6.48;100.00
74218;BME280;62579;47.288;18.646;2023-11-21T04:17:24;99341.12;;;6.53;100.00
74218;BME280;62579;47.288;18.646;2023-11-21T04:19:49;99348.25;;;6.56;100.00
74218;BME280;62579;47.288;18.646;2023-11-21T04:22:15;99350.00;;;6.59;100.00
74218;BME280;62579;47.288;18.646;2023-11-21T04:24:40;99354.88;;;6.55;100.00
74218;BME280;62579;47.288;18.646;2023-11-21T04:27:05;99367.06;;;6.40;100.00
74218;BME280;62579;47.288;18.646;2023-11-21T04:29:30;99367.41;;;6.27;100.00
74218;BME280;62579;47.288;18.646;2023-11-21T04:31:56;99360.84;;;6.34;100.00
74218;BME280;62579;47.288;18.646;2023-11-21T04:34:21;99374.19;;;6.43;100.00
74218;BME280;62579;47.288;18.646;2023-11-21T04:36:46;99378.91;;;6.48;100.00
74218;BME280;62579;47.288;18.646;2023-11-21T04:39:11;99380.62;;;6.45;100.00
74218;BME280;62579;47.288;18.646;2023-11-21T04:41:37;99381.13;;;6.49;100.00
74218;BME280;62579;47.288;18.646;2023-11-21T04:44:04;99378.69;;;6.51;100.00
74218;BME280;62579;47.288;18.646;2023-11-21T04:46:30;99372.84;;;6.58;100.00
74218;BME280;62579;47.288;18.646;2023-11-21T04:48:55;99365.00;;;6.60;100.00
74218;BME280;62579;47.288;18.646;2023-11-21T04:51:20;99365.50;;;6.64;100.00
74218;BME280;62579;47.288;18.646;2023-11-21T04:53:45;99373.94;;;6.72;100.00
74218;BME280;62579;47.288;18.646;2023-11-21T04:56:10;99369.56;;;6.80;100.00
74218;BME280;62579;47.288;18.646;2023-11-21T04:58:36;99365.59;;;6.76;100.00
74218;BME280;62579;47.288;18.646;2023-11-21T05:01:01;99374.03;;;6.89;100.00
74218;BME280;62579;47.288;18.646;2023-11-21T05:03:26;99381.06;;;6.75;100.00
74218;BME280;62579;47.288;18.646;2023-11-21T05:05:54;99371.03;;;6.81;100.00
74218;BME280;62579;47.288;18.646;2023-11-21T05:08:20;99377.19;;;6.82;100.00
74218;BME280;62579;47.288;18.646;2023-11-21T05:10:47;99376.94;;;6.80;100.00
74218;BME280;62579;47.288;18.646;2023-11-21T05:13:13;99375.00;;;6.80;100.00
74218;BME280;62579;47.288;18.646;2023-11-21T05:15:42;99386.31;;;6.84;100.00
74218;BME280;62579;47.288;18.646;2023-11-21T05:18:07;99384.09;;;6.83;100.00
74218;BME280;62579;47.288;18.646;2023-11-21T05:20:32;99395.88;;;6.80;100.00
74218;BME280;62579;47.288;18.646;2023-11-21T05:22:58;99397.28;;;6.75;100.00
74218;BME280;62579;47.288;18.646;2023-11-21T05:25:24;99394.38;;;6.79;100.00
74218;BME280;62579;47.288;18.646;2023-11-21T05:27:49;99391.22;;;6.80;100.00
74218;BME280;62579;47.288;18.646;2023-11-21T05:30:14;99388.97;;;6.79;100.00
74218;BME280;62579;47.288;18.646;2023-11-21T05:32:40;99396.66;;;6.54;100.00
74218;BME280;62579;47.288;18.646;2023-11-21T05:35:07;99396.00;;;6.65;100.00
74218;BME280;62579;47.288;18.646;2023-11-21T05:37:36;99405.81;;;6.62;100.00
74218;BME280;62579;47.288;18.646;2023-11-21T05:40:03;99405.81;;;6.62;100.00
74218;BME280;62579;47.288;18.646;2023-11-21T05:42:30;99393.75;;;6.58;100.00
74218;BME280;62579;47.288;18.646;2023-11-21T05:44:56;99401.16;;;6.63;100.00
74218;BME280;62579;47.288;18.646;2023-11-21T05:47:24;99407.56;;;6.65;100.00
74218;BME280;62579;47.288;18.646;2023-11-21T05:49:51;99420.38;;;6.71;100.00
74218;BME280;62579;47.288;18.646;2023-11-21T05:52:17;99424.34;;;6.75;100.00
74218;BME280;62579;47.288;18.646;2023-11-21T05:54:42;99427.59;;;6.79;100.00
74218;BME280;62579;47.288;18.646;2023-11-21T05:57:08;99433.25;;;6.81;100.00
74218;BME280;62579;47.288;18.646;2023-11-21T05:59:33;99432.03;;;6.82;100.00
74218;BME280;62579;47.288;18.646;2023-11-21T06:01:59;99441.62;;;6.83;100.00
74218;BME280;62579;47.288;18.646;2023-11-21T06:04:24;99456.62;;;6.84;100.00
74218;BME280;62579;47.288;18.646;2023-11-21T06:06:50;99457.59;;;6.81;100.00
74218;BME280;62579;47.288;18.646;2023-11-21T06:09:15;99455.84;;;6.78;100.00
74218;BME280;62579;47.288;18.646;2023-11-21T06:11:40;99470.84;;;6.79;100.00
74218;BME280;62579;47.288;18.646;2023-11-21T06:14:05;99466.19;;;6.80;100.00
74218;BME280;62579;47.288;18.646;2023-11-21T06:16:33;99477.75;;;6.80;100.00
74218;BME280;62579;47.288;18.646;2023-11-21T06:18:58;99482.03;;;6.92;100.00
74218;BME280;62579;47.288;18.646;2023-11-21T06:21:23;99478.84;;;6.94;100.00
74218;BME280;62579;47.288;18.646;2023-11-21T06:23:49;99480.28;;;6.89;100.00
74218;BME280;62579;47.288;18.646;2023-11-21T06:26:14;99483.41;;;6.82;100.00
74218;BME280;62579;47.288;18.646;2023-11-21T06:28:39;99486.19;;;6.88;100.00
74218;BME280;62579;47.288;18.646;2023-11-21T06:31:04;99490.53;;;6.80;100.00
74218;BME280;62579;47.288;18.646;2023-11-21T06:33:33;99485.06;;;6.74;100.00
74218;BME280;62579;47.288;18.646;2023-11-21T06:35:58;99489.94;;;6.70;100.00
74218;BME280;62579;47.288;18.646;2023-11-21T06:38:24;99493.03;;;6.57;100.00
74218;BME280;62579;47.288;18.646;2023-11-21T06:40:49;99482.69;;;6.56;100.00
74218;BME280;62579;47.288;18.646;2023-11-21T06:43:14;99500.38;;;6.57;100.00
74218;BME280;62579;47.288;18.646;2023-11-21T06:45:40;99503.84;;;6.57;100.00
74218;BME280;62579;47.288;18.646;2023-11-21T06:48:05;99500.69;;;6.64;100.00
74218;BME280;62579;47.288;18.646;2023-11-21T06:50:30;99493.94;;;6.75;100.00
74218;BME280;62579;47.288;18.646;2023-11-21T06:52:56;99496.28;;;6.61;100.00
74218;BME280;62579;47.288;18.646;2023-11-21T06:55:21;99498.91;;;6.56;100.00
74218;BME280;62579;47.288;18.646;2023-11-21T06:57:46;99495.97;;;6.59;100.00
74218;BME280;62579;47.288;18.646;2023-11-21T07:00:12;99494.22;;;6.56;100.00
74218;BME280;62579;47.288;18.646;2023-11-21T07:02:38;99496.94;;;6.56;100.00
74218;BME280;62579;47.288;18.646;2023-11-21T07:05:03;99491.47;;;6.51;100.00
74218;BME280;62579;47.288;18.646;2023-11-21T07:07:29;99494.47;;;6.53;100.00
74218;BME280;62579;47.288;18.646;2023-11-21T07:09:54;99497.41;;;6.55;100.00
74218;BME280;62579;47.288;18.646;2023-11-21T07:12:19;99493.22;;;6.54;100.00
74218;BME280;62579;47.288;18.646;2023-11-21T07:14:45;99497.41;;;6.55;100.00
74218;BME280;62579;47.288;18.646;2023-11-21T07:17:10;99500.13;;;6.55;100.00
74218;BME280;62579;47.288;18.646;2023-11-21T07:19:37;99501.19;;;6.63;100.00
74218;BME280;62579;47.288;18.646;2023-11-21T07:22:02;99510.25;;;6.60;100.00
74218;BME280;62579;47.288;18.646;2023-11-21T07:24:27;99509.03;;;6.61;100.00
74218;BME280;62579;47.288;18.646;2023-11-21T07:26:53;99507.13;;;6.67;100.00
74218;BME280;62579;47.288;18.646;2023-11-21T07:29:21;99506.16;;;6.70;100.00
74218;BME280;62579;47.288;18.646;2023-11-21T07:31:46;99498.37;;;6.78;100.00
74218;BME280;62579;47.288;18.646;2023-11-21T07:34:11;99489.78;;;6.79;100.00
74218;BME280;62579;47.288;18.646;2023-11-21T07:36:37;99489.03;;;6.79;100.00
74218;BME280;62579;47.288;18.646;2023-11-21T07:39:02;99487.59;;;6.83;100.00
74218;BME280;62579;47.288;18.646;2023-11-21T07:41:27;99487.34;;;6.81;100.00
74218;BME280;62579;47.288;18.646;2023-11-21T07:43:54;99488.34;;;6.84;100.00
74218;BME280;62579;47.288;18.646;2023-11-21T07:46:20;99491.59;;;6.88;100.00
74218;BME280;62579;47.288;18.646;2023-11-21T07:48:47;99489.75;;;7.05;100.00
74218;BME280;62579;47.288;18.646;2023-11-21T07:51:12;99495.03;;;6.88;100.00
74218;BME280;62579;47.288;18.646;2023-11-21T07:53:38;99486.19;;;6.88;100.00
74218;BME280;62579;47.288;18.646;2023-11-21T07:56:04;99490.87;;;6.93;100.00
74218;BME280;62579;47.288;18.646;2023-11-21T07:58:29;99493.59;;;6.93;100.00
74218;BME280;62579;47.288;18.646;2023-11-21T08:00:55;99491.84;;;6.90;100.00
74218;BME280;62579;47.288;18.646;2023-11-21T08:03:21;99486.81;;;7.08;100.00
74218;BME280;62579;47.288;18.646;2023-11-21T08:05:46;99489.28;;;7.06;100.00
74218;BME280;62579;47.288;18.646;2023-11-21T08:08:12;99484.56;;;7.01;100.00
74218;BME280;62579;47.288;18.646;2023-11-21T08:10:37;99484.06;;;7.03;100.00
74218;BME280;62579;47.288;18.646;2023-11-21T08:13:03;99484.81;;;7.03;100.00
74218;BME280;62579;47.288;18.646;2023-11-21T08:15:29;99482.91;;;7.09;100.00
74218;BME280;62579;47.288;18.646;2023-11-21T08:17:56;99479.25;;;7.12;100.00
74218;BME280;62579;47.288;18.646;2023-11-21T08:20:22;99473.38;;;7.19;100.00
74218;BME280;62579;47.288;18.646;2023-11-21T08:22:47;99481.28;;;7.23;100.00
74218;BME280;62579;47.288;18.646;2023-11-21T08:25:13;99481.84;;;7.33;100.00
74218;BME280;62579;47.288;18.646;2023-11-21T08:27:38;99481.38;;;7.34;100.00
74218;BME280;62579;47.288;18.646;2023-11-21T08:30:03;99480.09;;;7.30;100.00
74218;BME280;62579;47.288;18.646;2023-11-21T08:32:29;99484.78;;;7.35;100.00
74218;BME280;62579;47.288;18.646;2023-11-21T08:34:58;99483.59;;;7.36;100.00
74218;BME280;62579;47.288;18.646;2023-11-21T08:37:23;99481.88;;;7.38;100.00
74218;BME280;62579;47.288;18.646;2023-11-21T08:39:49;99484.38;;;7.42;100.00
74218;BME280;62579;47.288;18.646;2023-11-21T08:42:14;99487.09;;;7.47;100.00
74218;BME280;62579;47.288;18.646;2023-11-21T08:44:40;99486.88;;;7.51;100.00
74218;BME280;62579;47.288;18.646;2023-11-21T08:47:05;99487.41;;;7.55;100.00
74218;BME280;62579;47.288;18.646;2023-11-21T08:49:30;99494.81;;;7.60;100.00
74218;BME280;62579;47.288;18.646;2023-11-21T08:51:56;99492.41;;;7.73;100.00
74218;BME280;62579;47.288;18.646;2023-11-21T08:54:22;99492.84;;;7.60;100.00
74218;BME280;62579;47.288;18.646;2023-11-21T08:56:48;99491.34;;;7.59;100.00
74218;BME280;62579;47.288;18.646;2023-11-21T08:59:13;99497.78;;;7.67;100.00
74218;BME280;62579;47.288;18.646;2023-11-21T09:01:39;99486.72;;;7.65;100.00
74218;BME280;62579;47.288;18.646;2023-11-21T09:04:04;99492.16;;;7.71;100.00
74218;BME280;62579;47.288;18.646;2023-11-21T09:06:30;99492.91;;;7.71;100.00
74218;BME280;62579;47.288;18.646;2023-11-21T09:08:55;99488.50;;;7.74;100.00
74218;BME280;62579;47.288;18.646;2023-11-21T09:11:20;99494.41;;;7.78;100.00
74218;BME280;62579;47.288;18.646;2023-11-21T09:13:45;99491.69;;;7.78;100.00
74218;BME280;62579;47.288;18.646;2023-11-21T09:16:12;99484.56;;;7.80;100.00
74218;BME280;62579;47.288;18.646;2023-11-21T09:18:37;99485.84;;;7.85;100.00
74218;BME280;62579;47.288;18.646;2023-11-21T09:21:02;99489.03;;;7.89;100.00
74218;BME280;62579;47.288;18.646;2023-11-21T09:23:29;99480.84;;;7.78;100.00
74218;BME280;62579;47.288;18.646;2023-11-21T09:25:54;99481.06;;;7.69;100.00
74218;BME280;62579;47.288;18.646;2023-11-21T09:28:22;99483.03;;;7.68;100.00
74218;BME280;62579;47.288;18.646;2023-11-21T09:30:47;99482.53;;;7.70;100.00
74218;BME280;62579;47.288;18.646;2023-11-21T09:33:14;99478.88;;;7.73;100.00
74218;BME280;62579;47.288;18.646;2023-11-21T09:35:40;99465.06;;;7.71;100.00
74218;BME280;62579;47.288;18.646;2023-11-21T09:38:05;99464.84;;;7.74;100.00
74218;BME280;62579;47.288;18.646;2023-11-21T09:40:37;99463.16;;;7.82;100.00
74218;BME280;62579;47.288;18.646;2023-11-21T09:43:04;99460.47;;;7.82;100.00
74218;BME280;62579;47.288;18.646;2023-11-21T09:45:34;99459.00;;;7.93;100.00
74218;BME280;62579;47.288;18.646;2023-11-21T09:47:59;99458.06;;;8.01;100.00
74218;BME280;62579;47.288;18.646;2023-11-21T09:50:25;99458.09;;;8.07;100.00
74218;BME280;62579;47.288;18.646;2023-11-21T09:53:07;99461.78;;;8.09;100.00
74218;BME280;62579;47.288;18.646;2023-11-21T09:55:36;99457.38;;;8.12;100.00
74218;BME280;62579;47.288;18.646;2023-11-21T09:58:04;99450.53;;;8.33;100.00
74218;BME280;62579;47.288;18.646;2023-11-21T10:00:32;99444.16;;;8.36;100.00
74218;BME280;62579;47.288;18.646;2023-11-21T10:02:58;99450.06;;;8.40;100.00
74218;BME280;62579;47.288;18.646;2023-11-21T10:05:24;99442.91;;;8.42;100.00
74218;BME280;62579;47.288;18.646;2023-11-21T10:07:49;99441.47;;;8.47;100.00
74218;BME280;62579;47.288;18.646;2023-11-21T10:10:16;99448.56;;;8.44;100.00
74218;BME280;62579;47.288;18.646;2023-11-21T10:12:43;99444.87;;;8.48;100.00
74218;BME280;62579;47.288;18.646;2023-11-21T10:15:10;99441.72;;;8.55;100.00
74218;BME280;62579;47.288;18.646;2023-11-21T10:17:37;99432.84;;;8.60;100.00
74218;BME280;62579;47.288;18.646;2023-11-21T10:20:08;99436.53;;;8.62;100.00
74218;BME280;62579;47.288;18.646;2023-11-21T10:22:37;99436.03;;;8.64;100.00
74218;BME280;62579;47.288;18.646;2023-11-21T10:25:03;99429.84;;;8.69;100.00
74218;BME280;62579;47.288;18.646;2023-11-21T10:27:32;99436.78;;;8.70;100.00
74218;BME280;62579;47.288;18.646;2023-11-21T10:29:58;99429.84;;;8.69;100.00
74218;BME280;62579;47.288;18.646;2023-11-21T10:32:28;99426.44;;;8.74;100.00
74218;BME280;62579;47.288;18.646;2023-11-21T10:34:56;99427.91;;;8.75;100.00
74218;BME280;62579;47.288;18.646;2023-11-21T10:37:22;99430.84;;;8.77;100.00
74218;BME280;62579;47.288;18.646;2023-11-21T10:39:47;99436.53;;;8.79;100.00
74218;BME280;62579;47.288;18.646;2023-11-21T10:42:31;99433.56;;;8.82;100.00
74218;BME280;62579;47.288;18.646;2023-11-21T10:44:57;99427.41;;;8.87;100.00
74218;BME280;62579;47.288;18.646;2023-11-21T10:47:23;99425.69;;;8.90;100.00
74218;BME280;62579;47.288;18.646;2023-11-21T10:49:48;99423.44;;;8.94;100.00
74218;BME280;62579;47.288;18.646;2023-11-21T10:52:14;99422.47;;;8.97;100.00
74218;BME280;62579;47.288;18.646;2023-11-21T10:54:42;99419.25;;;8.98;100.00
74218;BME280;62579;47.288;18.646;2023-11-21T10:57:09;99415.81;;;8.98;100.00
74218;BME280;62579;47.288;18.646;2023-11-21T10:59:35;99415.06;;;9.03;100.00
74218;BME280;62579;47.288;18.646;2023-11-21T11:02:01;99412.34;;;9.09;100.00
74218;BME280;62579;47.288;18.646;2023-11-21T11:04:28;99413.06;;;9.09;100.00
74218;BME280;62579;47.288;18.646;2023-11-21T11:06:57;99420.47;;;9.14;100.00
74218;BME280;62579;47.288;18.646;2023-11-21T11:09:22;99417.03;;;9.14;100.00
74218;BME280;62579;47.288;18.646;2023-11-21T11:11:48;99419.97;;;9.16;100.00
74218;BME280;62579;47.288;18.646;2023-11-21T11:14:14;99412.34;;;9.20;100.00
74218;BME280;62579;47.288;18.646;2023-11-21T11:16:39;99414.75;;;9.34;100.00
74218;BME280;62579;47.288;18.646;2023-11-21T11:19:08;99407.84;;;9.33;100.00
74218;BME280;62579;47.288;18.646;2023-11-21T11:24:05;99413.03;;;9.31;100.00
74218;BME280;62579;47.288;18.646;2023-11-21T11:27:19;99403.88;;;9.34;100.00
74218;BME280;62579;47.288;18.646;2023-11-21T11:29:34;99401.41;;;9.36;100.00
74218;BME280;62579;47.288;18.646;2023-11-21T11:37:01;99384.84;;;9.45;100.00
74218;BME280;62579;47.288;18.646;2023-11-21T11:39:40;99381.38;;;9.50;100.00
74218;BME280;62579;47.288;18.646;2023-11-21T11:42:19;99378.66;;;9.50;100.00
74218;BME280;62579;47.288;18.646;2023-11-21T11:44:49;99375.69;;;9.54;100.00
74218;BME280;62579;47.288;18.646;2023-11-21T11:47:20;99375.91;;;9.61;100.00
74218;BME280;62579;47.288;18.646;2023-11-21T11:50:31;99372.66;;;9.68;100.00
74218;BME280;62579;47.288;18.646;2023-11-21T11:53:11;99368.94;;;9.72;100.00
74218;BME280;62579;47.288;18.646;2023-11-21T11:55:36;99373.38;;;9.75;100.00
74218;BME280;62579;47.288;18.646;2023-11-21T11:58:04;99369.88;;;9.80;100.00
74218;BME280;62579;47.288;18.646;2023-11-21T12:00:34;99372.09;;;9.87;100.00
74218;BME280;62579;47.288;18.646;2023-11-21T12:03:02;99365.91;;;9.86;100.00
74218;BME280;62579;47.288;18.646;2023-11-21T12:05:28;99370.81;;;9.88;99.78
74218;BME280;62579;47.288;18.646;2023-11-21T12:07:56;99369.34;;;9.92;98.93
74218;BME280;62579;47.288;18.646;2023-11-21T12:12:50;99362.63;;;9.99;97.83
74218;BME280;62579;47.288;18.646;2023-11-21T12:15:17;99360.00;;;10.23;95.60
74218;BME280;62579;47.288;18.646;2023-11-21T12:17:43;99366.47;;;10.20;95.85
74218;BME280;62579;47.288;18.646;2023-11-21T12:20:09;99366.69;;;10.22;96.43
74218;BME280;62579;47.288;18.646;2023-11-21T12:22:43;99358.00;;;10.29;95.81
74218;BME280;62579;47.288;18.646;2023-11-21T12:25:08;99356.13;;;10.13;96.73
74218;BME280;62579;47.288;18.646;2023-11-21T12:27:33;99358.59;;;10.11;97.22
74218;BME280;62579;47.288;18.646;2023-11-21T12:29:59;99361.56;;;10.07;97.40
74218;BME280;62579;47.288;18.646;2023-11-21T12:32:24;99356.16;;;10.02;98.01
74218;BME280;62579;47.288;18.646;2023-11-21T12:34:50;99354.47;;;9.99;98.71
74218;BME280;62579;47.288;18.646;2023-11-21T12:37:15;99349.06;;;9.93;99.77
74218;BME280;62579;47.288;18.646;2023-11-21T12:39:42;99348.06;;;9.91;100.00
74218;BME280;62579;47.288;18.646;2023-11-21T12:42:07;99339.44;;;9.92;100.00
74218;BME280;62579;47.288;18.646;2023-11-21T12:44:32;99337.94;;;9.91;100.00
74218;BME280;62579;47.288;18.646;2023-11-21T12:46:58;99336.25;;;9.88;100.00
74218;BME280;62579;47.288;18.646;2023-11-21T12:49:24;99342.38;;;9.94;98.48
74218;BME280;62579;47.288;18.646;2023-11-21T12:51:49;99341.91;;;9.90;97.63
74218;BME280;62579;47.288;18.646;2023-11-21T12:54:15;99341.16;;;9.90;97.02
74218;BME280;62579;47.288;18.646;2023-11-21T12:56:40;99346.84;;;9.92;96.92